sensor_id;sensor_type;location;lat;lon;timestamp;temperature;humidity
20337;DHT22;10326;53.660;10.200;2022-09-19T00:01:08;14.00;78.40
20337;DHT22;10326;53.660;10.200;2022-09-19T00:03:37;13.90;78.30
20337;DHT22;10326;53.660;10.200;2022-09-19T00:06:07;13.90;78.30
20337;DHT22;10326;53.660;10.200;2022-09-19T00:08:35;13.90;78.20
20337;DHT22;10326;53.660;10.200;2022-09-19T00:11:03;13.90;78.20
20337;DHT22;10326;53.660;10.200;2022-09-19T00:13:33;13.80;78.10
20337;DHT22;10326;53.660;10.200;2022-09-19T00:16:01;13.80;78.20
20337;DHT22;10326;53.660;10.200;2022-09-19T00:18:32;13.80;78.20
20337;DHT22;10326;53.660;10.200;2022-09-19T00:20:59;13.80;78.20
20337;DHT22;10326;53.660;10.200;2022-09-19T00:23:26;13.70;78.10
20337;DHT22;10326;53.660;10.200;2022-09-19T00:26:12;13.70;78.20
20337;DHT22;10326;53.660;10.200;2022-09-19T00:28:43;13.70;78.30
20337;DHT22;10326;53.660;10.200;2022-09-19T00:31:14;13.70;78.40
20337;DHT22;10326;53.660;10.200;2022-09-19T00:33:46;13.70;78.50
20337;DHT22;10326;53.660;10.200;2022-09-19T00:36:15;13.70;78.50
20337;DHT22;10326;53.660;10.200;2022-09-19T00:38:44;13.70;78.40
20337;DHT22;10326;53.660;10.200;2022-09-19T00:41:15;13.70;78.50
20337;DHT22;10326;53.660;10.200;2022-09-19T00:43:47;13.70;78.50
20337;DHT22;10326;53.660;10.200;2022-09-19T00:46:18;13.60;78.40
20337;DHT22;10326;53.660;10.200;2022-09-19T00:48:52;13.60;78.40
20337;DHT22;10326;53.660;10.200;2022-09-19T00:51:26;13.60;78.50
20337;DHT22;10326;53.660;10.200;2022-09-19T00:54:02;13.60;78.50
20337;DHT22;10326;53.660;10.200;2022-09-19T00:56:33;13.60;78.40
20337;DHT22;10326;53.660;10.200;2022-09-19T00:59:02;13.60;78.40
20337;DHT22;10326;53.660;10.200;2022-09-19T01:01:30;13.60;78.40
20337;DHT22;10326;53.660;10.200;2022-09-19T01:03:59;13.60;78.40
20337;DHT22;10326;53.660;10.200;2022-09-19T01:06:39;13.60;78.50
20337;DHT22;10326;53.660;10.200;2022-09-19T01:09:24;13.60;78.60
20337;DHT22;10326;53.660;10.200;2022-09-19T01:12:07;13.60;78.50
20337;DHT22;10326;53.660;10.200;2022-09-19T01:15:09;13.50;78.30
20337;DHT22;10326;53.660;10.200;2022-09-19T01:17:46;13.50;78.50
20337;DHT22;10326;53.660;10.200;2022-09-19T01:20:32;13.50;78.30
20337;DHT22;10326;53.660;10.200;2022-09-19T01:23:44;13.40;78.50
20337;DHT22;10326;53.660;10.200;2022-09-19T01:26:39;13.40;78.60
20337;DHT22;10326;53.660;10.200;2022-09-19T01:29:25;13.40;78.60
20337;DHT22;10326;53.660;10.200;2022-09-19T01:31:56;13.40;78.50
20337;DHT22;10326;53.660;10.200;2022-09-19T01:34:28;13.40;78.60
20337;DHT22;10326;53.660;10.200;2022-09-19T01:37:05;13.40;78.60
20337;DHT22;10326;53.660;10.200;2022-09-19T01:39:38;13.40;78.80
20337;DHT22;10326;53.660;10.200;2022-09-19T01:42:06;13.40;78.60
20337;DHT22;10326;53.660;10.200;2022-09-19T01:44:40;13.40;78.60
20337;DHT22;10326;53.660;10.200;2022-09-19T01:47:15;13.40;78.70
20337;DHT22;10326;53.660;10.200;2022-09-19T01:49:50;13.40;78.70
20337;DHT22;10326;53.660;10.200;2022-09-19T01:52:29;13.30;78.60
20337;DHT22;10326;53.660;10.200;2022-09-19T01:55:12;13.30;78.90
20337;DHT22;10326;53.660;10.200;2022-09-19T01:57:55;13.30;78.90
20337;DHT22;10326;53.660;10.200;2022-09-19T02:00:32;13.30;78.90
20337;DHT22;10326;53.660;10.200;2022-09-19T02:03:07;13.30;78.90
20337;DHT22;10326;53.660;10.200;2022-09-19T02:05:54;13.30;78.90
20337;DHT22;10326;53.660;10.200;2022-09-19T02:08:25;13.30;78.90
20337;DHT22;10326;53.660;10.200;2022-09-19T02:11:02;13.30;78.80
20337;DHT22;10326;53.660;10.200;2022-09-19T02:13:39;13.30;78.90
20337;DHT22;10326;53.660;10.200;2022-09-19T02:16:14;13.30;78.80
20337;DHT22;10326;53.660;10.200;2022-09-19T02:18:46;13.30;78.90
20337;DHT22;10326;53.660;10.200;2022-09-19T02:21:31;13.30;78.90
20337;DHT22;10326;53.660;10.200;2022-09-19T02:24:06;13.20;78.90
20337;DHT22;10326;53.660;10.200;2022-09-19T02:26:42;13.20;78.90
20337;DHT22;10326;53.660;10.200;2022-09-19T02:29:16;13.30;79.00
20337;DHT22;10326;53.660;10.200;2022-09-19T02:31:47;13.30;78.90
20337;DHT22;10326;53.660;10.200;2022-09-19T02:34:15;13.30;79.40
20337;DHT22;10326;53.660;10.200;2022-09-19T02:36:45;13.30;78.80
20337;DHT22;10326;53.660;10.200;2022-09-19T02:39:22;13.30;79.30
20337;DHT22;10326;53.660;10.200;2022-09-19T02:42:10;13.30;78.80
20337;DHT22;10326;53.660;10.200;2022-09-19T02:44:52;13.30;78.70
20337;DHT22;10326;53.660;10.200;2022-09-19T02:47:35;13.30;78.70
20337;DHT22;10326;53.660;10.200;2022-09-19T02:50:09;13.30;78.70
20337;DHT22;10326;53.660;10.200;2022-09-19T02:52:39;13.20;78.60
20337;DHT22;10326;53.660;10.200;2022-09-19T02:55:19;13.20;78.70
20337;DHT22;10326;53.660;10.200;2022-09-19T02:57:52;13.30;78.70
20337;DHT22;10326;53.660;10.200;2022-09-19T03:00:21;13.30;78.60
20337;DHT22;10326;53.660;10.200;2022-09-19T03:02:53;13.20;78.40
20337;DHT22;10326;53.660;10.200;2022-09-19T03:05:31;13.20;78.30
20337;DHT22;10326;53.660;10.200;2022-09-19T03:08:02;13.20;78.10
20337;DHT22;10326;53.660;10.200;2022-09-19T03:10:33;13.20;78.10
20337;DHT22;10326;53.660;10.200;2022-09-19T03:13:15;13.20;78.20
20337;DHT22;10326;53.660;10.200;2022-09-19T03:15:55;13.20;78.30
20337;DHT22;10326;53.660;10.200;2022-09-19T03:18:33;13.10;78.30
20337;DHT22;10326;53.660;10.200;2022-09-19T03:21:06;13.10;78.30
20337;DHT22;10326;53.660;10.200;2022-09-19T03:23:40;13.10;78.20
20337;DHT22;10326;53.660;10.200;2022-09-19T03:26:11;13.10;78.10
20337;DHT22;10326;53.660;10.200;2022-09-19T03:28:40;13.10;78.10
20337;DHT22;10326;53.660;10.200;2022-09-19T03:31:07;13.10;77.90
20337;DHT22;10326;53.660;10.200;2022-09-19T03:33:36;13.10;77.80
20337;DHT22;10326;53.660;10.200;2022-09-19T03:36:07;13.10;77.70
20337;DHT22;10326;53.660;10.200;2022-09-19T03:38:39;13.10;77.70
20337;DHT22;10326;53.660;10.200;2022-09-19T03:41:12;13.00;77.60
20337;DHT22;10326;53.660;10.200;2022-09-19T03:43:39;13.00;77.60
20337;DHT22;10326;53.660;10.200;2022-09-19T03:46:08;13.00;77.60
20337;DHT22;10326;53.660;10.200;2022-09-19T03:48:39;13.00;77.50
20337;DHT22;10326;53.660;10.200;2022-09-19T03:51:10;13.00;77.50
20337;DHT22;10326;53.660;10.200;2022-09-19T03:53:37;13.00;77.50
20337;DHT22;10326;53.660;10.200;2022-09-19T03:56:05;13.00;77.40
20337;DHT22;10326;53.660;10.200;2022-09-19T03:58:33;13.00;77.30
20337;DHT22;10326;53.660;10.200;2022-09-19T04:01:03;12.90;77.20
20337;DHT22;10326;53.660;10.200;2022-09-19T04:03:33;12.90;77.10
20337;DHT22;10326;53.660;10.200;2022-09-19T04:06:02;12.90;77.20
20337;DHT22;10326;53.660;10.200;2022-09-19T04:08:30;12.90;77.20
20337;DHT22;10326;53.660;10.200;2022-09-19T04:10:59;12.90;77.30
20337;DHT22;10326;53.660;10.200;2022-09-19T04:13:27;12.90;77.50
20337;DHT22;10326;53.660;10.200;2022-09-19T04:16:02;12.80;77.50
20337;DHT22;10326;53.660;10.200;2022-09-19T04:18:30;12.90;77.60
20337;DHT22;10326;53.660;10.200;2022-09-19T04:20:58;12.80;77.70
20337;DHT22;10326;53.660;10.200;2022-09-19T04:23:44;12.80;77.80
20337;DHT22;10326;53.660;10.200;2022-09-19T04:26:34;12.80;77.90
20337;DHT22;10326;53.660;10.200;2022-09-19T04:29:02;12.80;77.90
20337;DHT22;10326;53.660;10.200;2022-09-19T04:31:33;12.80;78.10
20337;DHT22;10326;53.660;10.200;2022-09-19T04:34:05;12.80;78.30
20337;DHT22;10326;53.660;10.200;2022-09-19T04:36:33;12.80;78.50
20337;DHT22;10326;53.660;10.200;2022-09-19T04:39:02;12.70;78.50
20337;DHT22;10326;53.660;10.200;2022-09-19T04:41:31;12.70;78.70
20337;DHT22;10326;53.660;10.200;2022-09-19T04:44:03;12.70;78.90
20337;DHT22;10326;53.660;10.200;2022-09-19T04:46:43;12.70;79.00
20337;DHT22;10326;53.660;10.200;2022-09-19T04:49:12;12.70;79.10
20337;DHT22;10326;53.660;10.200;2022-09-19T04:51:42;12.80;79.20
20337;DHT22;10326;53.660;10.200;2022-09-19T04:54:12;12.80;79.40
20337;DHT22;10326;53.660;10.200;2022-09-19T04:56:41;12.80;79.50
20337;DHT22;10326;53.660;10.200;2022-09-19T04:59:10;12.90;79.40
20337;DHT22;10326;53.660;10.200;2022-09-19T05:01:38;12.90;79.50
20337;DHT22;10326;53.660;10.200;2022-09-19T05:04:06;12.90;79.40
20337;DHT22;10326;53.660;10.200;2022-09-19T05:06:34;12.90;79.40
20337;DHT22;10326;53.660;10.200;2022-09-19T05:09:03;13.00;79.60
20337;DHT22;10326;53.660;10.200;2022-09-19T05:11:39;13.00;79.70
20337;DHT22;10326;53.660;10.200;2022-09-19T05:14:09;13.00;79.80
20337;DHT22;10326;53.660;10.200;2022-09-19T05:16:43;13.00;79.70
20337;DHT22;10326;53.660;10.200;2022-09-19T05:19:11;13.00;79.80
20337;DHT22;10326;53.660;10.200;2022-09-19T05:21:39;13.00;79.90
20337;DHT22;10326;53.660;10.200;2022-09-19T05:24:08;13.00;80.00
20337;DHT22;10326;53.660;10.200;2022-09-19T05:26:35;13.10;80.10
20337;DHT22;10326;53.660;10.200;2022-09-19T05:29:12;13.10;80.10
20337;DHT22;10326;53.660;10.200;2022-09-19T05:31:51;13.10;80.20
20337;DHT22;10326;53.660;10.200;2022-09-19T05:34:27;13.10;80.20
20337;DHT22;10326;53.660;10.200;2022-09-19T05:36:55;13.10;80.20
20337;DHT22;10326;53.660;10.200;2022-09-19T05:39:34;13.20;80.30
20337;DHT22;10326;53.660;10.200;2022-09-19T05:42:20;13.20;80.40
20337;DHT22;10326;53.660;10.200;2022-09-19T05:44:48;13.20;80.40
20337;DHT22;10326;53.660;10.200;2022-09-19T05:47:16;13.20;80.50
20337;DHT22;10326;53.660;10.200;2022-09-19T05:49:43;13.20;80.60
20337;DHT22;10326;53.660;10.200;2022-09-19T05:52:10;13.20;80.70
20337;DHT22;10326;53.660;10.200;2022-09-19T05:54:55;13.20;80.70
20337;DHT22;10326;53.660;10.200;2022-09-19T05:57:57;13.20;80.70
20337;DHT22;10326;53.660;10.200;2022-09-19T06:00:27;13.30;80.80
20337;DHT22;10326;53.660;10.200;2022-09-19T06:02:58;13.30;80.90
20337;DHT22;10326;53.660;10.200;2022-09-19T06:05:28;13.30;81.10
20337;DHT22;10326;53.660;10.200;2022-09-19T06:07:59;13.30;81.20
20337;DHT22;10326;53.660;10.200;2022-09-19T06:10:28;13.30;81.30
20337;DHT22;10326;53.660;10.200;2022-09-19T06:12:56;13.30;81.40
20337;DHT22;10326;53.660;10.200;2022-09-19T06:15:23;13.40;81.50
20337;DHT22;10326;53.660;10.200;2022-09-19T06:17:55;13.40;81.70
20337;DHT22;10326;53.660;10.200;2022-09-19T06:20:38;13.40;82.00
20337;DHT22;10326;53.660;10.200;2022-09-19T06:23:10;13.40;81.90
20337;DHT22;10326;53.660;10.200;2022-09-19T06:25:38;13.40;82.20
20337;DHT22;10326;53.660;10.200;2022-09-19T06:28:10;13.40;82.50
20337;DHT22;10326;53.660;10.200;2022-09-19T06:30:43;13.50;83.50
20337;DHT22;10326;53.660;10.200;2022-09-19T06:33:18;13.50;82.80
20337;DHT22;10326;53.660;10.200;2022-09-19T06:35:56;13.50;83.10
20337;DHT22;10326;53.660;10.200;2022-09-19T06:38:25;13.60;83.30
20337;DHT22;10326;53.660;10.200;2022-09-19T06:40:56;13.60;83.40
20337;DHT22;10326;53.660;10.200;2022-09-19T06:43:55;13.70;83.60
20337;DHT22;10326;53.660;10.200;2022-09-19T06:46:37;13.80;83.60
20337;DHT22;10326;53.660;10.200;2022-09-19T06:49:11;13.80;83.80
20337;DHT22;10326;53.660;10.200;2022-09-19T06:51:50;13.90;84.00
20337;DHT22;10326;53.660;10.200;2022-09-19T06:54:17;13.90;83.90
20337;DHT22;10326;53.660;10.200;2022-09-19T06:56:45;14.00;84.00
20337;DHT22;10326;53.660;10.200;2022-09-19T06:59:14;14.00;84.00
20337;DHT22;10326;53.660;10.200;2022-09-19T07:01:42;14.10;84.00
20337;DHT22;10326;53.660;10.200;2022-09-19T07:04:12;14.10;84.00
20337;DHT22;10326;53.660;10.200;2022-09-19T07:06:51;14.10;84.00
20337;DHT22;10326;53.660;10.200;2022-09-19T07:09:21;14.10;83.90
20337;DHT22;10326;53.660;10.200;2022-09-19T07:11:48;14.20;84.10
20337;DHT22;10326;53.660;10.200;2022-09-19T07:14:18;14.20;84.10
20337;DHT22;10326;53.660;10.200;2022-09-19T07:16:45;14.20;84.10
20337;DHT22;10326;53.660;10.200;2022-09-19T07:19:14;14.20;84.20
20337;DHT22;10326;53.660;10.200;2022-09-19T07:21:41;14.20;84.40
20337;DHT22;10326;53.660;10.200;2022-09-19T07:24:12;14.30;84.50
20337;DHT22;10326;53.660;10.200;2022-09-19T07:27:04;14.30;84.70
20337;DHT22;10326;53.660;10.200;2022-09-19T07:29:32;14.40;84.80
20337;DHT22;10326;53.660;10.200;2022-09-19T07:32:00;14.40;85.10
20337;DHT22;10326;53.660;10.200;2022-09-19T07:34:33;14.40;85.30
20337;DHT22;10326;53.660;10.200;2022-09-19T07:37:04;14.50;85.50
20337;DHT22;10326;53.660;10.200;2022-09-19T07:39:31;14.50;85.60
20337;DHT22;10326;53.660;10.200;2022-09-19T07:42:18;14.60;85.70
20337;DHT22;10326;53.660;10.200;2022-09-19T07:45:04;14.60;85.90
20337;DHT22;10326;53.660;10.200;2022-09-19T07:47:55;14.70;85.90
20337;DHT22;10326;53.660;10.200;2022-09-19T07:50:42;14.80;85.90
20337;DHT22;10326;53.660;10.200;2022-09-19T07:53:17;14.80;85.90
20337;DHT22;10326;53.660;10.200;2022-09-19T07:55:49;14.90;86.00
20337;DHT22;10326;53.660;10.200;2022-09-19T07:58:20;15.00;86.00
20337;DHT22;10326;53.660;10.200;2022-09-19T08:00:57;15.00;86.20
20337;DHT22;10326;53.660;10.200;2022-09-19T08:03:45;15.10;86.50
20337;DHT22;10326;53.660;10.200;2022-09-19T08:06:16;15.20;86.50
20337;DHT22;10326;53.660;10.200;2022-09-19T08:08:44;15.20;86.60
20337;DHT22;10326;53.660;10.200;2022-09-19T08:11:33;15.30;86.50
20337;DHT22;10326;53.660;10.200;2022-09-19T08:14:01;15.40;86.30
20337;DHT22;10326;53.660;10.200;2022-09-19T08:16:29;15.40;86.40
20337;DHT22;10326;53.660;10.200;2022-09-19T08:18:57;15.50;86.40
20337;DHT22;10326;53.660;10.200;2022-09-19T08:21:26;15.60;86.30
20337;DHT22;10326;53.660;10.200;2022-09-19T08:23:53;15.60;86.20
20337;DHT22;10326;53.660;10.200;2022-09-19T08:26:21;15.70;86.20
20337;DHT22;10326;53.660;10.200;2022-09-19T08:28:50;15.70;86.10
20337;DHT22;10326;53.660;10.200;2022-09-19T08:31:19;15.80;85.90
20337;DHT22;10326;53.660;10.200;2022-09-19T08:33:48;15.90;85.70
20337;DHT22;10326;53.660;10.200;2022-09-19T08:36:15;15.90;85.50
20337;DHT22;10326;53.660;10.200;2022-09-19T08:38:47;16.00;85.50
20337;DHT22;10326;53.660;10.200;2022-09-19T08:41:31;16.10;85.40
20337;DHT22;10326;53.660;10.200;2022-09-19T08:44:10;16.10;85.20
20337;DHT22;10326;53.660;10.200;2022-09-19T08:46:47;16.20;85.10
20337;DHT22;10326;53.660;10.200;2022-09-19T08:49:20;16.30;85.00
20337;DHT22;10326;53.660;10.200;2022-09-19T08:51:54;16.30;84.90
20337;DHT22;10326;53.660;10.200;2022-09-19T08:54:27;16.40;84.90
20337;DHT22;10326;53.660;10.200;2022-09-19T08:57:02;16.50;84.70
20337;DHT22;10326;53.660;10.200;2022-09-19T08:59:35;16.50;84.40
20337;DHT22;10326;53.660;10.200;2022-09-19T09:02:12;16.60;84.30
20337;DHT22;10326;53.660;10.200;2022-09-19T09:05:02;16.70;84.00
20337;DHT22;10326;53.660;10.200;2022-09-19T09:07:37;16.70;84.00
20337;DHT22;10326;53.660;10.200;2022-09-19T09:10:48;16.80;83.40
20337;DHT22;10326;53.660;10.200;2022-09-19T09:13:33;16.90;82.30
20337;DHT22;10326;53.660;10.200;2022-09-19T09:16:14;17.00;83.40
20337;DHT22;10326;53.660;10.200;2022-09-19T09:19:15;17.00;83.00
20337;DHT22;10326;53.660;10.200;2022-09-19T09:21:55;17.10;81.50
20337;DHT22;10326;53.660;10.200;2022-09-19T09:24:35;17.20;81.70
20337;DHT22;10326;53.660;10.200;2022-09-19T09:27:34;17.30;81.90
20337;DHT22;10326;53.660;10.200;2022-09-19T09:30:17;17.30;81.50
20337;DHT22;10326;53.660;10.200;2022-09-19T09:33:08;17.40;82.30
20337;DHT22;10326;53.660;10.200;2022-09-19T09:35:44;17.50;81.20
20337;DHT22;10326;53.660;10.200;2022-09-19T09:38:23;17.50;80.70
20337;DHT22;10326;53.660;10.200;2022-09-19T09:41:07;17.60;80.60
20337;DHT22;10326;53.660;10.200;2022-09-19T09:44:03;17.60;80.50
20337;DHT22;10326;53.660;10.200;2022-09-19T09:46:49;17.70;80.70
20337;DHT22;10326;53.660;10.200;2022-09-19T09:49:29;17.70;80.20
20337;DHT22;10326;53.660;10.200;2022-09-19T09:52:07;17.70;80.40
20337;DHT22;10326;53.660;10.200;2022-09-19T09:54:56;17.80;80.20
20337;DHT22;10326;53.660;10.200;2022-09-19T09:57:50;17.80;80.20
20337;DHT22;10326;53.660;10.200;2022-09-19T10:00:25;17.80;79.90
20337;DHT22;10326;53.660;10.200;2022-09-19T10:03:21;17.90;79.50
20337;DHT22;10326;53.660;10.200;2022-09-19T10:06:17;17.90;79.00
20337;DHT22;10326;53.660;10.200;2022-09-19T10:08:53;17.90;79.30
20337;DHT22;10326;53.660;10.200;2022-09-19T10:11:35;18.00;78.90
20337;DHT22;10326;53.660;10.200;2022-09-19T10:14:14;18.00;76.00
20337;DHT22;10326;53.660;10.200;2022-09-19T10:16:48;18.00;76.30
20337;DHT22;10326;53.660;10.200;2022-09-19T10:19:25;18.10;76.70
20337;DHT22;10326;53.660;10.200;2022-09-19T10:21:56;18.10;76.90
20337;DHT22;10326;53.660;10.200;2022-09-19T10:24:40;18.20;77.00
20337;DHT22;10326;53.660;10.200;2022-09-19T10:27:14;18.20;75.60
20337;DHT22;10326;53.660;10.200;2022-09-19T10:29:51;18.20;76.80
20337;DHT22;10326;53.660;10.200;2022-09-19T10:32:26;18.30;76.60
20337;DHT22;10326;53.660;10.200;2022-09-19T10:35:19;18.30;76.60
20337;DHT22;10326;53.660;10.200;2022-09-19T10:37:54;18.40;75.80
20337;DHT22;10326;53.660;10.200;2022-09-19T10:40:27;18.40;76.00
20337;DHT22;10326;53.660;10.200;2022-09-19T10:42:55;18.40;76.00
20337;DHT22;10326;53.660;10.200;2022-09-19T10:45:29;18.50;75.80
20337;DHT22;10326;53.660;10.200;2022-09-19T10:48:08;18.50;75.80
20337;DHT22;10326;53.660;10.200;2022-09-19T10:50:42;18.50;76.10
20337;DHT22;10326;53.660;10.200;2022-09-19T10:53:17;18.60;75.50
20337;DHT22;10326;53.660;10.200;2022-09-19T10:55:49;18.60;75.20
20337;DHT22;10326;53.660;10.200;2022-09-19T10:58:20;18.70;75.80
20337;DHT22;10326;53.660;10.200;2022-09-19T11:01:00;18.80;74.80
20337;DHT22;10326;53.660;10.200;2022-09-19T11:03:37;18.80;75.00
20337;DHT22;10326;53.660;10.200;2022-09-19T11:06:08;18.80;74.20
20337;DHT22;10326;53.660;10.200;2022-09-19T11:08:43;18.80;74.00
20337;DHT22;10326;53.660;10.200;2022-09-19T11:11:22;18.80;74.20
20337;DHT22;10326;53.660;10.200;2022-09-19T11:14:17;18.70;72.40
20337;DHT22;10326;53.660;10.200;2022-09-19T11:20:34;18.80;73.10
20337;DHT22;10326;53.660;10.200;2022-09-19T11:26:21;18.90;73.50
20337;DHT22;10326;53.660;10.200;2022-09-19T11:29:08;18.90;73.10
20337;DHT22;10326;53.660;10.200;2022-09-19T11:31:54;19.00;73.20
20337;DHT22;10326;53.660;10.200;2022-09-19T11:34:40;19.10;72.90
20337;DHT22;10326;53.660;10.200;2022-09-19T11:37:27;19.10;71.40
20337;DHT22;10326;53.660;10.200;2022-09-19T11:40:21;19.10;70.60
20337;DHT22;10326;53.660;10.200;2022-09-19T11:43:08;19.10;70.70
20337;DHT22;10326;53.660;10.200;2022-09-19T11:45:56;19.10;70.60
20337;DHT22;10326;53.660;10.200;2022-09-19T11:48:51;19.10;70.80
20337;DHT22;10326;53.660;10.200;2022-09-19T11:51:48;19.10;70.80
20337;DHT22;10326;53.660;10.200;2022-09-19T11:54:49;19.20;72.80
20337;DHT22;10326;53.660;10.200;2022-09-19T11:57:35;19.30;72.50
20337;DHT22;10326;53.660;10.200;2022-09-19T12:00:12;19.40;72.40
20337;DHT22;10326;53.660;10.200;2022-09-19T12:02:59;19.50;71.00
20337;DHT22;10326;53.660;10.200;2022-09-19T12:08:51;19.70;69.50
20337;DHT22;10326;53.660;10.200;2022-09-19T12:11:37;19.70;68.10
20337;DHT22;10326;53.660;10.200;2022-09-19T12:14:11;19.70;67.90
20337;DHT22;10326;53.660;10.200;2022-09-19T12:16:46;19.70;68.10
20337;DHT22;10326;53.660;10.200;2022-09-19T12:19:19;19.60;68.00
20337;DHT22;10326;53.660;10.200;2022-09-19T12:21:52;19.60;69.00
20337;DHT22;10326;53.660;10.200;2022-09-19T12:24:26;19.50;69.40
20337;DHT22;10326;53.660;10.200;2022-09-19T12:27:19;19.40;69.10
20337;DHT22;10326;53.660;10.200;2022-09-19T12:29:58;19.30;67.80
20337;DHT22;10326;53.660;10.200;2022-09-19T12:32:33;19.20;68.20
20337;DHT22;10326;53.660;10.200;2022-09-19T12:35:13;19.10;67.90
20337;DHT22;10326;53.660;10.200;2022-09-19T12:37:49;19.00;68.10
20337;DHT22;10326;53.660;10.200;2022-09-19T12:40:28;18.90;68.80
20337;DHT22;10326;53.660;10.200;2022-09-19T12:43:13;18.80;69.20
20337;DHT22;10326;53.660;10.200;2022-09-19T12:45:57;18.80;69.50
20337;DHT22;10326;53.660;10.200;2022-09-19T12:48:44;18.70;69.10
20337;DHT22;10326;53.660;10.200;2022-09-19T12:51:46;18.60;69.30
20337;DHT22;10326;53.660;10.200;2022-09-19T12:54:21;18.50;69.40
20337;DHT22;10326;53.660;10.200;2022-09-19T12:56:57;18.40;69.60
20337;DHT22;10326;53.660;10.200;2022-09-19T12:59:31;18.40;69.70
20337;DHT22;10326;53.660;10.200;2022-09-19T13:02:12;18.30;69.60
20337;DHT22;10326;53.660;10.200;2022-09-19T13:04:48;18.30;69.70
20337;DHT22;10326;53.660;10.200;2022-09-19T13:07:23;18.30;70.10
20337;DHT22;10326;53.660;10.200;2022-09-19T13:10:03;18.20;69.90
20337;DHT22;10326;53.660;10.200;2022-09-19T13:12:40;18.20;69.60
20337;DHT22;10326;53.660;10.200;2022-09-19T13:15:19;18.20;69.40
20337;DHT22;10326;53.660;10.200;2022-09-19T13:17:49;18.10;69.70
20337;DHT22;10326;53.660;10.200;2022-09-19T13:20:36;18.10;70.10
20337;DHT22;10326;53.660;10.200;2022-09-19T13:23:24;18.00;70.10
20337;DHT22;10326;53.660;10.200;2022-09-19T13:25:58;18.00;70.20
20337;DHT22;10326;53.660;10.200;2022-09-19T13:28:47;18.00;70.50
20337;DHT22;10326;53.660;10.200;2022-09-19T13:31:18;18.00;70.70
20337;DHT22;10326;53.660;10.200;2022-09-19T13:33:50;18.00;70.70
20337;DHT22;10326;53.660;10.200;2022-09-19T13:36:36;17.90;70.20
20337;DHT22;10326;53.660;10.200;2022-09-19T13:39:42;18.00;70.40
20337;DHT22;10326;53.660;10.200;2022-09-19T13:42:17;18.00;70.20
20337;DHT22;10326;53.660;10.200;2022-09-19T13:44:56;18.00;70.20
20337;DHT22;10326;53.660;10.200;2022-09-19T13:47:29;18.00;70.40
20337;DHT22;10326;53.660;10.200;2022-09-19T13:50:04;18.00;70.00
20337;DHT22;10326;53.660;10.200;2022-09-19T13:52:41;18.00;70.20
20337;DHT22;10326;53.660;10.200;2022-09-19T13:55:19;18.00;70.70
20337;DHT22;10326;53.660;10.200;2022-09-19T13:58:14;18.00;72.20
20337;DHT22;10326;53.660;10.200;2022-09-19T14:00:44;18.00;71.40
20337;DHT22;10326;53.660;10.200;2022-09-19T14:03:26;18.10;72.10
20337;DHT22;10326;53.660;10.200;2022-09-19T14:06:16;18.20;72.60
20337;DHT22;10326;53.660;10.200;2022-09-19T14:09:25;18.30;71.90
20337;DHT22;10326;53.660;10.200;2022-09-19T14:12:00;18.40;71.30
20337;DHT22;10326;53.660;10.200;2022-09-19T14:14:54;18.60;71.50
20337;DHT22;10326;53.660;10.200;2022-09-19T14:17:28;18.70;71.20
20337;DHT22;10326;53.660;10.200;2022-09-19T14:19:59;18.80;71.20
20337;DHT22;10326;53.660;10.200;2022-09-19T14:22:41;19.00;71.10
20337;DHT22;10326;53.660;10.200;2022-09-19T14:25:21;19.10;69.60
20337;DHT22;10326;53.660;10.200;2022-09-19T14:28:04;19.30;69.40
20337;DHT22;10326;53.660;10.200;2022-09-19T14:34:17;19.50;69.50
20337;DHT22;10326;53.660;10.200;2022-09-19T14:37:17;19.60;68.80
20337;DHT22;10326;53.660;10.200;2022-09-19T14:46:36;19.80;68.00
20337;DHT22;10326;53.660;10.200;2022-09-19T14:49:20;19.90;67.10
20337;DHT22;10326;53.660;10.200;2022-09-19T14:51:58;20.00;66.60
20337;DHT22;10326;53.660;10.200;2022-09-19T14:54:37;20.00;66.10
20337;DHT22;10326;53.660;10.200;2022-09-19T14:57:14;20.10;66.60
20337;DHT22;10326;53.660;10.200;2022-09-19T14:59:42;20.10;66.20
20337;DHT22;10326;53.660;10.200;2022-09-19T15:02:20;20.10;65.70
20337;DHT22;10326;53.660;10.200;2022-09-19T15:04:56;20.10;65.00
20337;DHT22;10326;53.660;10.200;2022-09-19T15:07:28;20.10;66.30
20337;DHT22;10326;53.660;10.200;2022-09-19T15:09:57;20.00;65.60
20337;DHT22;10326;53.660;10.200;2022-09-19T15:12:29;19.90;65.30
20337;DHT22;10326;53.660;10.200;2022-09-19T15:14:58;19.70;65.30
20337;DHT22;10326;53.660;10.200;2022-09-19T15:17:26;19.50;65.60
20337;DHT22;10326;53.660;10.200;2022-09-19T15:19:57;19.30;66.00
20337;DHT22;10326;53.660;10.200;2022-09-19T15:22:31;19.00;65.30
20337;DHT22;10326;53.660;10.200;2022-09-19T15:25:05;18.80;64.80
20337;DHT22;10326;53.660;10.200;2022-09-19T15:27:45;18.60;65.80
20337;DHT22;10326;53.660;10.200;2022-09-19T15:30:17;18.40;66.30
20337;DHT22;10326;53.660;10.200;2022-09-19T15:32:47;18.20;67.00
20337;DHT22;10326;53.660;10.200;2022-09-19T15:35:16;18.10;67.40
20337;DHT22;10326;53.660;10.200;2022-09-19T15:37:46;17.90;67.70
20337;DHT22;10326;53.660;10.200;2022-09-19T15:40:20;17.80;68.10
20337;DHT22;10326;53.660;10.200;2022-09-19T15:42:50;17.60;68.40
20337;DHT22;10326;53.660;10.200;2022-09-19T15:45:35;17.50;68.60
20337;DHT22;10326;53.660;10.200;2022-09-19T15:48:13;17.40;69.00
20337;DHT22;10326;53.660;10.200;2022-09-19T15:50:45;17.30;69.20
20337;DHT22;10326;53.660;10.200;2022-09-19T15:53:18;17.20;69.40
20337;DHT22;10326;53.660;10.200;2022-09-19T15:55:59;17.10;69.70
20337;DHT22;10326;53.660;10.200;2022-09-19T15:58:33;17.10;70.50
20337;DHT22;10326;53.660;10.200;2022-09-19T16:01:13;17.00;70.50
20337;DHT22;10326;53.660;10.200;2022-09-19T16:03:49;17.00;70.80
20337;DHT22;10326;53.660;10.200;2022-09-19T16:06:29;16.90;71.10
20337;DHT22;10326;53.660;10.200;2022-09-19T16:09:17;16.90;71.30
20337;DHT22;10326;53.660;10.200;2022-09-19T16:11:47;16.90;71.40
20337;DHT22;10326;53.660;10.200;2022-09-19T16:14:17;16.80;71.60
20337;DHT22;10326;53.660;10.200;2022-09-19T16:16:51;16.80;71.90
20337;DHT22;10326;53.660;10.200;2022-09-19T16:19:40;16.80;72.00
20337;DHT22;10326;53.660;10.200;2022-09-19T16:22:11;16.80;72.80
20337;DHT22;10326;53.660;10.200;2022-09-19T16:24:44;16.70;72.30
20337;DHT22;10326;53.660;10.200;2022-09-19T16:27:19;16.70;72.20
20337;DHT22;10326;53.660;10.200;2022-09-19T16:29:50;16.70;72.20
20337;DHT22;10326;53.660;10.200;2022-09-19T16:32:19;16.70;72.20